createdAt,value
2023-07-18T00:04:11.206Z,12.15
2023-07-18T00:14:21.058Z,14.73
2023-07-18T00:19:25.684Z,17.85
2023-07-18T00:24:31.305Z,14.03
2023-07-18T00:29:35.284Z,14.63
2023-07-18T00:34:41.969Z,18.00
2023-07-18T00:39:48.329Z,13.02
2023-07-18T00:49:57.506Z,21.30
2023-07-18T00:55:03.389Z,16.48
2023-07-18T01:00:10.677Z,18.33
2023-07-18T01:05:18.887Z,47.10
2023-07-18T01:10:25.865Z,20.38
2023-07-18T01:15:32.362Z,33.47
2023-07-18T01:20:37.261Z,19.95
2023-07-18T01:25:43.007Z,16.20
2023-07-18T01:30:48.098Z,17.40
2023-07-18T01:35:53.253Z,10.10
2023-07-18T01:40:58.540Z,9.55
2023-07-18T01:46:03.048Z,11.27
2023-07-18T01:51:06.954Z,10.30
2023-07-18T01:56:12.362Z,12.68
2023-07-18T02:01:16.531Z,13.35
2023-07-18T02:06:20.449Z,12.07
2023-07-18T02:11:26.175Z,10.38
2023-07-18T02:16:30.089Z,8.77
2023-07-18T02:21:34.392Z,8.85
2023-07-18T02:26:39.675Z,6.43
2023-07-18T02:31:43.799Z,8.38
2023-07-18T02:36:48.807Z,8.73
2023-07-18T02:41:53.909Z,11.77
2023-07-18T02:46:57.889Z,11.85
2023-07-18T02:52:01.811Z,6.57
2023-07-18T02:57:07.897Z,14.20
2023-07-18T03:02:14.404Z,11.40
2023-07-18T03:07:21.781Z,10.13
2023-07-18T03:12:30.333Z,8.40
2023-07-18T03:17:37.980Z,11.63
2023-07-18T03:22:44.822Z,11.13
2023-07-18T03:27:53.754Z,9.68
2023-07-18T03:32:58.988Z,6.80
2023-07-18T03:38:04.804Z,8.55
2023-07-18T03:43:09.998Z,8.60
2023-07-18T03:48:15.370Z,8.25
2023-07-18T03:53:22.234Z,8.02
2023-07-18T03:58:31.026Z,10.45
2023-07-18T04:03:38.828Z,16.50
2023-07-18T04:08:45.817Z,9.18
2023-07-18T04:13:53.067Z,10.55
2023-07-18T04:18:59.921Z,6.18
2023-07-18T04:24:10.395Z,8.48
2023-07-18T04:29:20.766Z,10.10
2023-07-18T04:34:27.704Z,10.23
2023-07-18T04:39:34.700Z,12.98
2023-07-18T04:44:43.080Z,7.13
2023-07-18T04:49:50.694Z,12.93
2023-07-18T04:54:57.123Z,10.27
2023-07-18T05:00:06.958Z,13.30
2023-07-18T05:05:12.726Z,17.60
2023-07-18T05:10:20.089Z,13.75
2023-07-18T05:15:28.043Z,16.48
2023-07-18T05:20:34.984Z,15.00
2023-07-18T05:25:42.690Z,16.67
2023-07-18T05:30:55.275Z,16.83
2023-07-18T05:36:06.028Z,16.50
2023-07-18T05:41:13.278Z,14.55
2023-07-18T05:46:22.583Z,16.23
2023-07-18T05:51:29.773Z,16.58
2023-07-18T05:56:37.506Z,13.75
2023-07-18T06:01:47.286Z,23.20
2023-07-18T06:06:56.597Z,17.35
2023-07-18T06:12:04.733Z,10.95
2023-07-18T06:17:13.179Z,11.45
2023-07-18T06:22:20.217Z,13.15
2023-07-18T06:27:28.274Z,13.60
2023-07-18T06:32:35.344Z,17.77
2023-07-18T06:37:43.810Z,11.80
2023-07-18T06:42:51.161Z,12.10
2023-07-18T06:48:00.949Z,44.30
2023-07-18T06:53:08.523Z,10.75
2023-07-18T06:58:15.874Z,9.05
2023-07-18T07:03:24.565Z,12.85
2023-07-18T07:08:30.988Z,16.27
2023-07-18T07:13:41.955Z,15.30
2023-07-18T07:18:52.520Z,14.25
2023-07-18T07:24:00.108Z,9.10
2023-07-18T07:29:08.884Z,10.27
2023-07-18T07:34:17.497Z,8.23
2023-07-18T07:39:23.030Z,13.82
2023-07-18T07:44:27.781Z,11.73
2023-07-18T07:49:34.571Z,11.70
2023-07-18T07:54:41.360Z,10.73
2023-07-18T07:59:46.485Z,10.10
2023-07-18T08:04:54.007Z,10.18
2023-07-18T08:09:59.153Z,9.68
2023-07-18T08:15:03.310Z,11.73
2023-07-18T08:20:11.660Z,8.75
2023-07-18T08:25:15.792Z,11.57
2023-07-18T08:30:21.215Z,9.38
2023-07-18T08:35:26.765Z,12.75
2023-07-18T08:40:30.897Z,9.35
2023-07-18T08:45:38.821Z,8.63
2023-07-18T08:50:44.558Z,7.07
2023-07-18T08:55:49.355Z,11.25
2023-07-18T09:00:53.749Z,14.88
2023-07-18T09:06:03.383Z,7.67
2023-07-18T09:11:07.714Z,10.77
2023-07-18T09:16:16.327Z,13.13
2023-07-18T09:21:25.184Z,7.55
2023-07-18T09:26:30.196Z,8.80
2023-07-18T09:31:36.686Z,9.63
2023-07-18T09:36:57.587Z,6.60
2023-07-18T09:42:08.575Z,5.65
2023-07-18T09:47:18.256Z,6.75
2023-07-18T09:52:30.769Z,9.88
2023-07-18T09:57:39.683Z,5.25
2023-07-18T10:02:47.603Z,7.00
2023-07-18T10:07:56.188Z,9.07
2023-07-18T10:13:04.119Z,10.38
2023-07-18T10:18:19.983Z,9.63
2023-07-18T10:23:43.420Z,7.20
2023-07-18T10:28:56.562Z,9.68
2023-07-18T10:34:19.978Z,7.47
2023-07-18T10:39:42.532Z,5.63
2023-07-18T10:44:49.767Z,10.25
2023-07-18T10:49:57.153Z,7.43
2023-07-18T10:55:06.342Z,11.00
2023-07-18T11:00:12.916Z,5.50
2023-07-18T11:05:17.789Z,5.53
2023-07-18T11:10:23.372Z,9.13
2023-07-18T11:15:31.725Z,5.63
2023-07-18T11:20:38.778Z,4.72
2023-07-18T11:25:44.825Z,11.20
2023-07-18T11:30:50.498Z,13.80
2023-07-18T11:35:57.902Z,6.13
2023-07-18T11:41:07.404Z,4.70
2023-07-18T11:46:14.370Z,12.48
2023-07-18T11:51:21.875Z,9.35
2023-07-18T11:56:30.760Z,5.53
2023-07-18T12:01:39.031Z,6.15
2023-07-18T12:06:45.731Z,5.43
2023-07-18T12:11:55.862Z,7.43
2023-07-18T12:17:03.293Z,5.97
2023-07-18T12:22:08.353Z,4.85
2023-07-18T12:27:16.984Z,5.50
2023-07-18T12:32:28.335Z,5.22
2023-07-18T12:37:36.012Z,7.70
2023-07-18T12:42:44.398Z,6.28
2023-07-18T12:47:52.085Z,6.35
2023-07-18T12:52:59.106Z,5.22
2023-07-18T12:58:05.213Z,5.15
2023-07-18T13:03:09.407Z,4.25
2023-07-18T13:08:14.012Z,5.10
2023-07-18T13:13:19.544Z,3.92
2023-07-18T13:18:24.672Z,5.07
2023-07-18T13:23:29.086Z,4.55
2023-07-18T13:28:36.854Z,3.80
2023-07-18T13:33:44.803Z,3.28
2023-07-18T13:38:54.911Z,6.93
2023-07-18T13:44:04.592Z,4.05
2023-07-18T13:49:10.679Z,6.03
2023-07-18T13:54:17.350Z,5.00
2023-07-18T13:59:24.023Z,4.32
2023-07-18T14:04:29.534Z,6.53
2023-07-18T14:09:34.530Z,4.88
2023-07-18T14:14:41.822Z,3.83
2023-07-18T14:19:49.467Z,3.33
2023-07-18T14:24:56.779Z,5.18
2023-07-18T14:30:04.017Z,4.70
2023-07-18T14:35:10.916Z,7.28
2023-07-18T14:40:15.678Z,5.38
2023-07-18T14:45:23.597Z,5.47
2023-07-18T14:50:29.233Z,3.45
2023-07-18T14:55:35.804Z,4.95
2023-07-18T15:00:46.627Z,4.22
2023-07-18T15:05:53.265Z,5.40
2023-07-18T15:11:00.644Z,6.07
2023-07-18T15:16:09.842Z,5.38
2023-07-18T15:21:17.214Z,3.67
2023-07-18T15:26:22.795Z,4.05
2023-07-18T15:36:33.693Z,4.22
2023-07-18T15:41:39.751Z,4.05
2023-07-18T15:46:46.279Z,3.70
2023-07-18T15:51:53.074Z,4.32
2023-07-18T15:56:58.171Z,5.25
2023-07-18T16:02:05.602Z,5.10
2023-07-18T16:07:11.046Z,5.57
2023-07-18T16:12:17.307Z,5.90
2023-07-18T16:17:26.373Z,5.47
2023-07-18T16:22:33.757Z,5.45
2023-07-18T16:27:38.855Z,5.57
2023-07-18T16:32:46.394Z,4.15
2023-07-18T16:37:53.182Z,7.68
2023-07-18T16:42:58.667Z,7.15
2023-07-18T16:48:06.378Z,3.43
2023-07-18T16:53:10.794Z,4.57
2023-07-18T16:58:17.524Z,3.63
2023-07-18T17:03:24.992Z,6.43
2023-07-18T17:08:31.110Z,4.30
2023-07-18T17:13:37.745Z,3.85
2023-07-18T17:18:45.973Z,3.78
2023-07-18T17:23:52.063Z,4.60
2023-07-18T17:28:59.094Z,5.45
2023-07-18T17:34:07.317Z,4.07
2023-07-18T17:39:14.047Z,6.95
2023-07-18T17:44:21.348Z,4.45
2023-07-18T17:49:29.174Z,6.65
2023-07-18T17:54:33.541Z,4.38
2023-07-18T17:59:37.867Z,6.28
2023-07-18T18:04:43.447Z,7.15
2023-07-18T18:09:47.517Z,5.90
2023-07-18T18:14:55.546Z,5.38
2023-07-18T18:20:01.230Z,5.82
2023-07-18T18:25:05.484Z,7.03
2023-07-18T18:30:10.177Z,7.38
2023-07-18T18:35:15.390Z,10.48
2023-07-18T18:45:24.841Z,11.15
2023-07-18T18:50:31.908Z,11.70
2023-07-18T18:55:36.721Z,10.05
2023-07-18T19:00:42.976Z,6.47
2023-07-18T19:05:50.349Z,10.00
2023-07-18T19:11:06.586Z,10.30
2023-07-18T19:16:24.821Z,11.65
2023-07-18T19:21:38.617Z,16.33
2023-07-18T19:26:44.771Z,14.80
2023-07-18T19:31:50.546Z,13.82
2023-07-18T19:36:56.631Z,11.02
2023-07-18T19:42:00.512Z,12.68
2023-07-18T19:47:04.605Z,18.38
2023-07-18T19:52:10.070Z,16.27
2023-07-18T19:57:14.648Z,16.70
2023-07-18T20:02:18.874Z,16.87
2023-07-18T20:07:26.340Z,13.13
2023-07-18T20:12:31.289Z,19.40
2023-07-18T20:17:36.837Z,17.95
2023-07-18T20:22:45.451Z,18.85
2023-07-18T20:27:49.963Z,20.20
2023-07-18T20:32:53.830Z,14.85
2023-07-18T20:38:01.938Z,16.88
2023-07-18T20:43:08.839Z,19.48
2023-07-18T20:48:13.840Z,18.42
2023-07-18T20:53:20.433Z,15.57
2023-07-18T20:58:26.475Z,13.90
2023-07-18T21:03:32.943Z,16.35
2023-07-18T21:08:39.393Z,13.65
2023-07-18T21:13:46.706Z,13.50
2023-07-18T21:18:53.653Z,13.85
2023-07-18T21:24:02.600Z,17.27
2023-07-18T21:29:09.024Z,16.83
2023-07-18T21:34:16.224Z,14.57
2023-07-18T21:39:24.834Z,12.25
2023-07-18T21:44:32.285Z,15.55
2023-07-18T21:49:37.196Z,13.38
2023-07-18T21:54:42.730Z,10.97
2023-07-18T22:04:54.049Z,12.23
2023-07-18T22:10:00.640Z,11.18
2023-07-18T22:15:06.307Z,10.55
2023-07-18T22:20:12.709Z,13.15
2023-07-18T22:25:19.748Z,14.25
2023-07-18T22:30:26.276Z,24.55
2023-07-18T22:35:31.885Z,12.27
2023-07-18T22:40:38.849Z,10.73
2023-07-18T22:45:44.329Z,11.43
2023-07-18T22:50:52.438Z,16.35
2023-07-18T22:56:01.234Z,9.32
2023-07-18T23:01:06.438Z,11.63
2023-07-18T23:06:10.440Z,9.32
2023-07-18T23:11:15.622Z,16.23
2023-07-18T23:16:19.706Z,10.75
2023-07-18T23:21:26.471Z,12.57
2023-07-18T23:26:36.179Z,8.88
2023-07-18T23:31:43.200Z,10.40
2023-07-18T23:36:50.341Z,9.48
2023-07-18T23:41:59.786Z,16.50
2023-07-18T23:47:07.036Z,16.27
2023-07-18T23:52:12.277Z,12.30
